Time;durP1;ratioP1;P1;durP2;ratioP2;P2;SDS_P1;SDS_P2;PMS_P1;PMS_P2;Temp;Humidity;BMP_temperature;BMP_pressure;BME280_temperature;BME280_humidity;BME280_pressure;Samples;Min_cycle;Max_cycle;Signal;HPM_P1;HPM_P2
2022/11/11 00:00:18;;;;;;;10.27;5.17;;;9.80;99.90;;;7.98;93.62;101539.13;10483175;28;20057;-88
2022/11/11 00:05:21;;;;;;;7.80;4.20;;;10.00;99.90;;;8.02;92.33;101544.03;10496833;28;20053;-88
2022/11/11 00:10:26;;;;;;;9.07;4.30;;;10.10;99.90;;;7.99;91.51;101540.78;10499692;28;20060;-88
2022/11/11 00:15:29;;;;;;;6.60;3.80;;;10.10;99.90;;;7.93;91.38;101547.41;10467461;28;20068;-89
2022/11/11 00:25:54;;;;;;;;;;;10.10;99.90;;;7.70;91.28;101556.25;10467842;28;20146;-89
2022/11/11 00:31:17;;;;;;;7.17;4.27;;;9.90;99.90;;;7.57;91.45;101564.28;10468129;28;19928;-89
2022/11/11 00:36:20;;;;;;;12.13;4.20;;;9.80;99.90;;;7.43;91.42;101564.44;10511609;28;20061;-89
2022/11/11 00:41:25;;;;;;;9.53;4.03;;;9.70;99.90;;;7.28;91.73;101579.66;10532196;28;20060;-90
2022/11/11 00:51:50;;;;;;;15.18;5.72;;;9.40;99.90;;;6.99;92.79;101581.78;10472093;28;20066;-88
2022/11/11 00:56:53;;;;;;;10.43;5.17;;;9.20;99.90;;;6.86;93.15;101570.41;10517024;28;20071;-88
2022/11/11 01:01:56;;;;;;;12.33;6.37;;;9.10;99.90;;;6.71;93.72;101567.88;10489970;28;20068;-88
2022/11/11 01:06:59;;;;;;;15.10;6.30;;;8.90;99.90;;;6.56;94.16;101561.06;10475175;28;20061;-88
2022/11/11 01:12:02;;;;;;;12.97;6.53;;;8.80;99.90;;;6.41;94.75;101562.97;10484647;28;20421;-87
2022/11/11 01:17:05;;;;;;;15.97;7.70;;;8.60;99.90;;;6.25;95.08;101565.03;10496353;28;20057;-87
2022/11/11 01:22:09;;;;;;;15.20;6.87;;;8.50;99.90;;;6.10;95.75;101566.06;10458349;28;20497;-86
2022/11/11 01:27:12;;;;;;;15.37;6.73;;;8.40;99.90;;;5.98;96.21;101575.66;10494897;28;20068;-86
2022/11/11 01:32:15;;;;;;;13.97;6.83;;;8.20;99.90;;;5.81;96.41;101576.78;10488174;28;20057;-86
2022/11/11 01:37:18;;;;;;;10.53;6.37;;;8.10;99.90;;;5.70;97.04;101583.72;10462974;28;20061;-87
2022/11/11 01:42:21;;;;;;;17.10;7.40;;;7.90;99.90;;;5.58;97.48;101588.03;10506276;28;20058;-86
2022/11/11 01:49:17;;;;;;;16.43;7.33;;;7.80;99.90;;;5.42;97.70;101577.66;10535345;28;20119;-86
2022/11/11 01:53:07;;;;;;;17.15;8.52;;;7.70;99.90;;;5.22;98.25;101573.69;10516926;28;20057;-86
2022/11/11 01:58:14;;;;;;;10.80;5.60;;;7.50;99.90;;;5.08;98.56;101582.47;10483487;28;20065;-86
2022/11/11 02:03:20;;;;;;;10.90;6.47;;;7.30;99.90;;;4.96;99.11;101592.97;10472331;28;20061;-86
2022/11/11 02:08:31;;;;;;;18.70;9.07;;;7.20;99.90;;;4.83;99.42;101593.72;10482561;28;20465;-87
2022/11/11 02:19:01;;;;;;;13.80;7.23;;;7.00;99.90;;;4.63;100.00;101595.94;10478756;28;20057;-88
2022/11/11 02:24:10;;;;;;;13.47;6.50;;;6.90;99.90;;;4.54;100.00;101605.25;10519714;28;20057;-88
2022/11/11 02:29:19;;;;;;;11.13;5.63;;;6.80;99.90;;;4.46;100.00;101600.47;10485858;28;20107;-88
2022/11/11 02:34:32;;;;;;;12.87;6.10;;;6.70;99.90;;;4.40;100.00;101607.88;10470787;28;20061;-88
2022/11/11 02:39:44;;;;;;;18.00;7.63;;;6.70;99.90;;;4.32;100.00;101618.88;10473126;28;20136;-87
2022/11/11 02:45:06;;;;;;;15.20;7.20;;;6.60;99.90;;;4.23;100.00;101619.44;10483826;28;20057;-87
2022/11/11 02:50:09;;;;;;;16.03;7.47;;;6.50;99.90;;;4.15;100.00;101621.69;10478423;28;20062;-87
2022/11/11 02:55:13;;;;;;;14.83;7.27;;;6.40;99.90;;;4.09;100.00;101633.41;10489674;28;20096;-87
2022/11/11 03:00:17;;;;;;;15.10;7.10;;;6.40;99.90;;;4.03;100.00;101629.38;10492051;28;20467;-87
2022/11/11 03:05:20;;;;;;;14.63;6.90;;;6.30;99.90;;;3.99;100.00;101637.50;10463677;28;20079;-88
2022/11/11 03:10:24;;;;;;;19.20;7.87;;;6.30;99.90;;;3.98;100.00;101641.09;10520869;28;20111;-87
2022/11/11 03:15:26;;;;;;;15.83;6.53;;;6.30;99.90;;;3.95;100.00;101650.00;10501299;28;20471;-87
2022/11/11 03:25:51;;;;;;;21.20;8.37;;;6.30;99.90;;;3.91;100.00;101655.53;10480414;28;20148;-88
2022/11/11 03:31:00;;;;;;;12.27;5.83;;;6.20;99.90;;;3.85;100.00;101667.25;10497256;28;20226;-88
2022/11/11 03:36:07;;;;;;;14.30;7.20;;;6.20;99.90;;;3.81;100.00;101660.47;10514838;28;20061;-88
2022/11/11 03:41:10;;;;;;;18.33;8.57;;;6.10;99.90;;;3.78;100.00;101660.66;10506579;28;20057;-87
2022/11/11 03:46:13;;;;;;;15.80;7.00;;;6.10;99.90;;;3.73;100.00;101665.34;10500025;28;20061;-87
2022/11/11 03:51:16;;;;;;;15.33;6.63;;;6.10;99.90;;;3.65;100.00;101662.28;10465181;28;20187;-87
2022/11/11 03:56:19;;;;;;;18.53;7.47;;;6.00;99.90;;;3.57;100.00;101673.25;10476535;28;20091;-89
2022/11/11 04:12:04;;;;;;;18.43;7.37;;;5.80;99.90;;;3.51;100.00;101688.50;10485217;28;20536;-88
2022/11/11 04:17:07;;;;;;;17.03;6.33;;;5.80;99.90;;;3.45;100.00;101681.81;10477903;28;20433;-88
2022/11/11 04:22:10;;;;;;;12.27;6.10;;;5.80;99.90;;;3.44;100.00;101688.84;10484195;28;20063;-88
2022/11/11 04:27:17;;;;;;;14.30;7.57;;;5.80;99.90;;;3.42;100.00;101685.47;10488869;28;20096;-88
2022/11/11 04:32:39;;;;;;;14.77;6.10;;;5.70;99.90;;;3.39;100.00;101692.66;10464345;28;20057;-88
2022/11/11 04:41:02;;;;;;;;;;;5.70;99.90;;;3.36;100.00;101691.06;10533556;28;20126;-88
2022/11/11 04:43:16;;;;;;;17.00;8.40;;;5.70;99.90;;;3.26;100.00;101692.50;10493813;28;19928;-87
2022/11/11 04:48:19;;;;;;;22.80;9.63;;;5.60;99.90;;;3.19;100.00;101702.50;10499110;28;20061;-87
2022/11/11 04:53:25;;;;;;;19.73;8.03;;;5.60;99.90;;;3.14;100.00;101696.66;10513949;28;20061;-87
2022/11/11 04:58:34;;;;;;;21.03;8.70;;;5.50;99.90;;;3.10;100.00;101689.84;10507388;28;20064;-87
2022/11/11 05:03:37;;;;;;;20.67;8.23;;;5.40;99.90;;;3.13;100.00;101707.25;10461146;28;20062;-87
2022/11/11 05:08:55;;;;;;;18.63;8.10;;;5.40;99.90;;;3.11;100.00;101701.22;10485621;28;20414;-87
2022/11/11 05:30:14;;;;;;;22.23;8.40;;;5.30;99.90;;;2.98;100.00;101705.44;10507361;28;20420;-85
2022/11/11 05:35:18;;;;;;;22.83;9.80;;;5.30;99.90;;;2.97;100.00;101709.00;10492462;28;20524;-84
2022/11/11 05:40:21;;;;;;;23.03;10.50;;;5.30;99.90;;;2.93;100.00;101708.28;10521088;28;20053;-85
2022/11/11 05:45:24;;;;;;;20.50;10.30;;;5.30;99.90;;;2.89;100.00;101718.13;10511621;28;20398;-85
2022/11/11 05:50:27;;;;;;;29.93;11.63;;;5.20;99.90;;;2.91;100.00;101721.50;10458347;28;20424;-85
2022/11/11 05:55:30;;;;;;;23.73;10.43;;;5.20;99.90;;;2.95;100.00;101719.59;10537809;28;20056;-85
2022/11/11 06:00:33;;;;;;;23.43;9.83;;;5.20;99.90;;;3.04;100.00;101726.13;10517997;28;20062;-85
2022/11/11 06:05:36;;;;;;;26.63;10.13;;;5.30;99.90;;;3.07;100.00;101737.31;10513862;28;20057;-85
2022/11/11 06:10:39;;;;;;;26.50;10.37;;;5.40;99.90;;;3.07;100.00;101744.34;10470632;28;20064;-84
2022/11/11 06:15:42;;;;;;;25.47;9.67;;;5.40;99.90;;;3.09;100.00;101758.25;10512478;28;20060;-85
2022/11/11 06:20:45;;;;;;;21.57;8.23;;;5.40;99.90;;;3.10;100.00;101757.31;10532867;28;20492;-85
2022/11/11 06:31:16;;;;;;;37.15;11.65;;;5.50;99.90;;;3.25;100.00;101759.13;10508255;28;20535;-87
2022/11/11 06:36:20;;;;;;;46.63;13.43;;;5.50;99.90;;;3.39;100.00;101764.47;10470283;28;20065;-86
2022/11/11 06:41:24;;;;;;;40.67;13.00;;;5.60;99.90;;;3.53;100.00;101774.22;10486340;28;20061;-85
2022/11/11 06:46:27;;;;;;;35.83;12.63;;;5.80;99.90;;;3.68;100.00;101768.13;10452424;28;20057;-84
2022/11/11 06:51:30;;;;;;;49.80;16.37;;;5.90;99.90;;;3.82;100.00;101772.59;10527440;28;20061;-85
2022/11/11 06:56:33;;;;;;;43.60;18.67;;;6.00;99.90;;;4.02;100.00;101779.41;10485505;28;20061;-85
2022/11/11 07:01:36;;;;;;;48.70;20.83;;;6.20;99.90;;;4.26;100.00;101803.47;10470943;28;20076;-83
2022/11/11 07:06:39;;;;;;;36.23;19.57;;;6.40;99.90;;;4.46;100.00;101816.31;10466025;28;20057;-84
2022/11/11 07:11:42;;;;;;;39.30;14.67;;;6.50;99.90;;;4.55;100.00;101809.63;10499138;28;20081;-84
2022/11/11 07:16:45;;;;;;;31.30;12.37;;;6.70;99.90;;;4.66;100.00;101823.03;10459953;28;20836;-85
2022/11/11 07:21:48;;;;;;;31.13;12.00;;;6.80;99.90;;;4.79;100.00;101820.53;10520270;28;20061;-82
2022/11/11 07:26:50;;;;;;;41.87;19.17;;;6.90;99.90;;;4.90;100.00;101828.63;10498086;28;20065;-82
2022/11/11 07:31:54;;;;;;;33.97;16.40;;;7.00;99.90;;;5.06;100.00;101839.97;10468312;28;20536;-82
2022/11/11 07:36:58;;;;;;;35.57;17.43;;;7.20;99.90;;;5.30;100.00;101840.25;10492785;28;20057;-82
2022/11/11 07:42:01;;;;;;;27.93;14.47;;;7.40;99.90;;;5.47;100.00;101843.66;10500420;28;20528;-82
2022/11/11 07:47:04;;;;;;;24.10;12.73;;;7.60;99.90;;;5.55;100.00;101844.84;10483786;28;20061;-82
2022/11/11 07:52:07;;;;;;;22.93;11.60;;;7.70;99.90;;;5.72;100.00;101841.19;10504074;28;20057;-82
2022/11/11 07:57:10;;;;;;;19.43;10.37;;;7.80;99.90;;;5.93;100.00;101844.25;10504440;28;20061;-82
2022/11/11 08:02:14;;;;;;;17.17;9.47;;;8.00;99.90;;;6.12;100.00;101852.72;10502785;28;20061;-82
2022/11/11 08:07:18;;;;;;;15.37;9.03;;;8.20;99.90;;;6.23;100.00;101851.16;10470325;28;20509;-81
2022/11/11 08:17:46;;;;;;;14.13;7.70;;;8.60;99.90;;;6.87;100.00;101857.47;10507895;28;20056;-82
2022/11/11 08:22:53;;;;;;;13.47;7.70;;;9.00;99.90;;;7.30;100.00;101862.47;10497406;28;20143;-82
2022/11/11 08:28:16;;;;;;;11.50;7.63;;;9.30;99.90;;;7.94;100.00;101855.28;10446467;28;20424;-82
2022/11/11 08:33:20;;;;;;;10.57;7.27;;;9.80;99.90;;;8.33;100.00;101857.66;10485846;28;20063;-82
2022/11/11 08:38:38;;;;;;;10.93;7.07;;;10.30;99.90;;;8.91;100.00;101856.97;10514853;28;20056;-82
2022/11/11 08:43:41;;;;;;;12.70;7.10;;;10.80;99.90;;;9.44;100.00;101844.03;10511322;28;20069;-82
2022/11/11 08:48:44;;;;;;;12.40;7.77;;;11.30;99.90;;;9.82;100.00;101854.25;10508167;28;20124;-82
2022/11/11 08:53:47;;;;;;;12.13;7.47;;;11.70;99.90;;;10.01;98.64;101857.13;10539616;28;20061;-82
2022/11/11 08:58:50;;;;;;;12.50;7.80;;;12.00;99.90;;;10.33;96.68;101838.59;10523816;28;20084;-82
2022/11/11 09:03:53;;;;;;;14.60;8.43;;;12.40;99.90;;;10.69;94.89;101847.16;10506373;28;20072;-82
2022/11/11 09:08:56;;;;;;;12.68;7.82;;;12.80;99.90;;;11.24;92.00;101853.09;10508013;27;20057;-82
2022/11/11 09:13:59;;;;;;;10.52;6.75;;;13.40;99.90;;;11.69;89.04;101842.06;10524972;28;20061;-82
2022/11/11 09:19:02;;;;;;;11.70;7.03;;;13.90;99.90;;;11.79;86.62;101840.28;10507293;28;20057;-82
2022/11/11 09:24:05;;;;;;;11.63;6.83;;;14.00;99.90;;;11.47;84.37;101851.13;10521343;28;20554;-82
2022/11/11 09:29:08;;;;;;;12.33;7.37;;;13.80;99.90;;;11.01;83.94;101844.44;10487581;28;20196;-83
2022/11/11 09:34:13;;;;;;;10.33;6.90;;;13.30;99.90;;;10.72;84.55;101844.22;10505434;28;20063;-82
2022/11/11 09:39:16;;;;;;;10.40;6.93;;;13.00;99.90;;;10.72;84.46;101833.59;10485009;28;20152;-82
2022/11/11 09:45:05;;;;;;;12.33;6.83;;;12.90;99.90;;;10.69;83.83;101840.03;10522757;28;20060;-82
2022/11/11 09:50:14;;;;;;;12.33;6.80;;;12.90;99.90;;;10.73;83.82;101840.59;10538497;28;20057;-82
2022/11/11 09:55:35;;;;;;;13.37;7.97;;;13.00;99.90;;;10.86;84.75;101827.97;10487188;28;20164;-82
2022/11/11 10:00:42;;;;;;;19.25;7.90;;;13.10;99.90;;;11.25;84.94;101833.50;10502144;28;20053;-82
2022/11/11 10:05:57;;;;;;;12.07;6.55;;;13.60;99.90;;;12.00;83.84;101814.47;10487076;28;20057;-82
2022/11/11 10:11:01;;;;;;;12.90;6.90;;;14.40;99.90;;;12.35;81.81;101804.22;10485013;28;20463;-82
2022/11/11 10:16:21;;;;;;;10.68;7.00;;;14.70;99.90;;;12.35;80.80;101797.06;10485931;28;20068;-82
2022/11/11 10:21:50;;;;;;;11.02;6.90;;;14.70;99.90;;;12.75;80.07;101804.06;10521596;28;20085;-83
2022/11/11 10:27:21;;;;;;;9.98;6.53;;;15.10;99.90;;;13.71;79.13;101780.69;10504687;28;20069;-83
2022/11/11 10:32:31;;;;;;;9.23;5.97;;;16.00;99.90;;;14.06;77.41;101783.41;10486556;28;20061;-82
2022/11/11 10:37:41;;;;;;;10.48;7.35;;;16.40;99.90;;;14.10;75.40;101798.16;10487780;28;20503;-83
2022/11/11 10:42:44;;;;;;;;;;;16.50;99.90;;;14.23;74.98;101805.81;10471958;28;20064;-81
2022/11/11 10:48:27;;;;;;;10.02;6.20;;;16.60;99.90;;;14.38;74.86;101796.22;10487106;28;19935;-80
2022/11/11 10:53:47;;;;;;;11.75;7.95;;;16.70;99.90;;;14.41;73.39;101789.75;10455086;28;20061;-83
2022/11/11 10:59:04;;;;;;;9.68;6.63;;;16.70;99.90;;;14.16;72.59;101769.97;10536319;28;20069;-83
2022/11/11 11:04:30;;;;;;;10.98;6.78;;;16.50;99.90;;;13.97;73.61;101762.94;10485744;28;20061;-83
2022/11/11 11:09:54;;;;;;;13.55;7.38;;;16.20;99.90;;;13.78;74.30;101747.03;10516993;28;20056;-83
2022/11/11 11:15:05;;;;;;;9.63;6.47;;;16.00;99.90;;;13.67;75.43;101748.09;10504093;28;20059;-83
2022/11/11 11:20:14;;;;;;;7.47;4.47;;;15.90;99.90;;;13.41;73.19;101747.97;10536443;28;20119;-83
2022/11/11 11:25:20;;;;;;;7.07;3.92;;;15.70;99.90;;;13.07;73.37;101758.31;10490645;28;20068;-83
2022/11/11 11:30:25;;;;;;;8.95;5.82;;;15.30;99.90;;;12.96;74.45;101740.69;10485251;28;20064;-83
2022/11/11 11:35:31;;;;;;;8.30;4.82;;;15.20;99.90;;;12.99;76.11;101745.72;10483482;28;20065;-83
2022/11/11 11:40:52;;;;;;;10.00;6.00;;;15.10;99.90;;;12.86;76.55;101763.88;10502450;28;20480;-83
2022/11/11 11:45:58;;;;;;;10.43;6.22;;;15.00;99.90;;;12.83;77.78;101757.03;10534314;28;20057;-83
2022/11/11 11:51:49;;;;;;;10.10;5.97;;;14.90;99.90;;;12.84;78.11;101763.19;10500284;28;20506;-82
2022/11/11 11:56:58;;;;;;;11.85;6.75;;;14.90;99.90;;;12.83;78.38;101773.03;10490533;28;20060;-82
2022/11/11 12:02:44;;;;;;;9.97;6.27;;;15.00;99.90;;;12.80;78.26;101770.63;10475814;28;20153;-83
2022/11/11 12:08:30;;;;;;;10.00;6.20;;;14.90;99.90;;;12.73;78.82;101761.53;10493166;28;20104;-83
2022/11/11 12:14:13;;;;;;;8.03;5.70;;;14.90;99.90;;;12.66;79.25;101763.09;10458755;28;20053;-83
2022/11/11 12:19:46;;;;;;;10.13;5.00;;;14.80;99.90;;;12.56;78.86;101760.44;10486341;28;20063;-83
2022/11/11 12:25:28;;;;;;;5.43;3.73;;;14.70;99.90;;;12.46;76.97;101775.59;10500386;28;20103;-83
2022/11/11 12:30:37;;;;;;;4.23;2.57;;;14.60;99.90;;;12.44;76.70;101780.25;10500298;28;20081;-83
2022/11/11 12:36:01;;;;;;;5.47;2.80;;;14.50;99.90;;;12.43;76.49;101775.06;10483924;28;20068;-83
2022/11/11 12:41:25;;;;;;;7.47;4.10;;;14.50;99.90;;;12.48;76.25;101747.00;10458394;28;20108;-82
2022/11/11 12:46:37;;;;;;;6.07;2.80;;;14.60;99.90;;;12.53;75.33;101766.06;10465454;28;20059;-83
2022/11/11 12:52:01;;;;;;;7.70;2.53;;;14.60;99.90;;;12.52;74.41;101779.53;10513009;28;20122;-83
2022/11/11 12:57:22;;;;;;;6.53;2.83;;;14.70;99.90;;;12.54;74.18;101761.56;10500451;28;20564;-83
2022/11/11 13:03:03;;;;;;;6.07;2.63;;;14.60;99.90;;;12.66;74.85;101733.75;10517218;28;20065;-82
2022/11/11 13:08:18;;;;;;;5.30;2.50;;;14.80;99.90;;;12.76;73.95;101744.38;10458381;28;20065;-83
2022/11/11 13:13:38;;;;;;;3.30;2.03;;;14.90;99.90;;;12.77;73.27;101741.56;10496776;28;20164;-83
2022/11/11 13:18:55;;;;;;;4.97;1.80;;;15.00;99.90;;;12.79;72.88;101746.78;10517852;28;20068;-83
2022/11/11 13:23:58;;;;;;;4.15;2.80;;;14.90;99.90;;;12.75;73.27;101748.03;10498685;28;20061;-82
2022/11/11 13:30:00;;;;;;;7.63;3.80;;;14.90;99.90;;;12.63;73.24;101751.88;10522864;28;20067;-83
2022/11/11 13:35:23;;;;;;;7.13;3.93;;;14.80;99.90;;;12.39;73.75;101737.16;10539629;28;20456;-83
2022/11/11 13:40:43;;;;;;;5.90;3.53;;;14.60;99.90;;;12.23;74.84;101726.22;10476641;28;20088;-83
2022/11/11 13:45:54;;;;;;;4.30;3.00;;;14.40;99.90;;;12.16;76.04;101733.09;10474940;28;20084;-83
2022/11/11 13:51:30;;;;;;;5.30;2.97;;;14.30;99.90;;;12.08;75.57;101732.97;10485891;28;20057;-83
2022/11/11 13:56:44;;;;;;;5.27;2.80;;;14.20;99.90;;;11.98;76.07;101723.16;10497211;28;20063;-83
2022/11/11 14:02:17;;;;;;;8.80;3.83;;;14.10;99.90;;;11.84;76.21;101725.41;10490852;28;20069;-83
2022/11/11 14:07:42;;;;;;;6.57;4.53;;;14.00;99.90;;;11.65;77.27;101727.03;10515971;28;20061;-83
2022/11/11 14:12:48;;;;;;;6.47;3.90;;;13.80;99.90;;;11.50;77.71;101717.72;10496856;28;20513;-83
2022/11/11 14:17:52;;;;;;;9.37;5.63;;;13.60;99.90;;;11.35;78.28;101708.47;10498351;28;20085;-83
2022/11/11 14:23:17;;;;;;;11.90;6.10;;;13.50;99.90;;;11.15;79.43;101707.53;10500256;28;20057;-83
2022/11/11 14:28:29;;;;;;;8.37;4.83;;;13.30;99.90;;;11.03;80.24;101706.78;10496733;28;20061;-85
2022/11/11 14:33:52;;;;;;;9.17;5.00;;;13.10;99.90;;;10.92;80.76;101702.44;10521191;28;20061;-82
2022/11/11 14:39:32;;;;;;;9.67;5.57;;;13.00;99.90;;;10.78;81.41;101704.59;10484361;28;20398;-81
2022/11/11 14:44:34;;;;;;;10.63;7.63;;;12.90;99.90;;;10.60;82.21;101707.84;10492979;28;20089;-79
2022/11/11 14:49:53;;;;;;;8.60;4.93;;;12.70;99.90;;;10.42;82.93;101704.94;10508555;28;20062;-83
2022/11/11 14:55:02;;;;;;;10.07;6.10;;;12.60;99.90;;;10.23;83.73;101710.13;10506023;28;20075;-84
2022/11/11 15:00:28;;;;;;;12.70;7.50;;;12.40;99.90;;;10.03;84.74;101697.66;10517967;28;20530;-82
2022/11/11 15:05:51;;;;;;;11.70;7.60;;;12.20;99.90;;;9.85;85.98;101700.03;10501701;28;20523;-82
2022/11/11 15:10:57;;;;;;;13.63;8.13;;;12.00;99.90;;;9.68;86.90;101711.19;10486456;28;20504;-82
2022/11/11 15:16:49;;;;;;;15.33;8.57;;;11.80;99.90;;;9.51;87.74;101701.94;10521920;28;20099;-82
2022/11/11 15:22:24;;;;;;;16.53;9.60;;;11.70;99.90;;;9.32;88.13;101695.47;10451574;28;20053;-81
2022/11/11 15:27:49;;;;;;;20.33;11.63;;;11.50;99.90;;;9.13;88.67;101697.06;10501495;28;20061;-82
2022/11/11 15:33:33;;;;;;;36.73;19.70;;;11.30;99.90;;;8.95;90.06;101709.97;10472597;28;20057;-82
2022/11/11 15:38:36;;;;;;;21.33;12.87;;;11.10;99.90;;;8.81;91.07;101716.31;10483261;28;20065;-81
2022/11/11 15:43:39;;;;;;;15.73;9.57;;;10.90;99.90;;;8.74;91.86;101718.59;10477255;28;20097;-80
2022/11/11 15:48:43;;;;;;;17.30;8.50;;;10.80;99.90;;;8.71;92.96;101724.16;10493494;28;20061;-82
2022/11/11 15:53:47;;;;;;;17.60;10.10;;;10.80;99.90;;;8.70;93.35;101733.06;10494260;28;20123;-85
2022/11/11 15:58:50;;;;;;;17.50;8.73;;;10.80;99.90;;;8.66;93.52;101731.63;10477203;28;20061;-84
2022/11/11 16:03:54;;;;;;;14.33;8.43;;;10.70;99.90;;;8.58;94.08;101732.22;10481247;28;20180;-85
2022/11/11 16:08:57;;;;;;;15.20;8.03;;;10.70;99.90;;;8.60;94.84;101737.38;10477543;28;20061;-85
2022/11/11 16:14:04;;;;;;;12.53;7.93;;;10.70;99.90;;;8.65;95.71;101735.25;10529731;28;20065;-84
2022/11/11 16:19:35;;;;;;;20.83;9.50;;;10.70;99.90;;;8.66;95.79;101736.91;10483688;28;20065;-84
2022/11/11 16:24:41;;;;;;;12.10;7.90;;;10.70;99.90;;;8.69;96.25;101731.38;10474336;28;20053;-85
2022/11/11 16:29:44;;;;;;;12.57;8.10;;;10.70;99.90;;;8.71;96.39;101726.81;10451725;28;20057;-84
2022/11/11 16:34:48;;;;;;;13.47;7.60;;;10.70;99.90;;;8.73;96.90;101726.69;10502586;28;20057;-85
2022/11/11 16:39:51;;;;;;;14.87;9.27;;;10.70;99.90;;;8.77;97.06;101721.03;10486035;28;20824;-85
2022/11/11 16:44:58;;;;;;;16.53;8.40;;;10.70;99.90;;;8.84;97.25;101714.28;10480193;28;20136;-84
2022/11/11 16:50:25;;;;;;;16.23;8.43;;;10.80;99.90;;;8.84;96.69;101726.69;10499592;28;20065;-85
2022/11/11 16:55:45;;;;;;;14.37;8.90;;;10.80;99.90;;;8.84;97.01;101722.25;10487290;28;20061;-85
2022/11/11 17:00:48;;;;;;;17.53;9.17;;;10.90;99.90;;;8.92;97.50;101723.44;10498466;28;20057;-85
2022/11/11 17:06:06;;;;;;;15.50;8.67;;;10.90;99.90;;;8.98;97.17;101720.31;10508459;28;20111;-85
2022/11/11 17:11:38;;;;;;;15.40;8.50;;;11.00;99.90;;;8.94;96.94;101703.81;10480352;28;20491;-86
2022/11/11 17:16:41;;;;;;;14.48;8.98;;;11.00;99.90;;;8.85;96.92;101710.66;10488428;28;20057;-85
2022/11/11 17:21:44;;;;;;;16.83;9.53;;;10.90;99.90;;;8.82;97.16;101708.28;10458957;28;20513;-85
2022/11/11 17:26:47;;;;;;;21.87;11.83;;;10.90;99.90;;;8.80;97.02;101704.88;10477124;28;20369;-84
2022/11/11 17:31:49;;;;;;;16.80;10.90;;;10.90;99.90;;;8.81;97.04;101697.75;10506587;28;20053;-85
2022/11/11 17:36:52;;;;;;;15.40;8.87;;;10.80;99.90;;;8.78;97.49;101696.22;10474565;28;20499;-84
2022/11/11 17:41:55;;;;;;;16.60;11.17;;;10.80;99.90;;;8.75;97.32;101693.78;10500287;28;20063;-85
2022/11/11 17:46:58;;;;;;;21.37;12.27;;;10.80;99.90;;;8.74;97.85;101691.25;10484335;28;20056;-84
2022/11/11 17:52:02;;;;;;;19.57;11.63;;;10.70;99.90;;;8.73;98.14;101690.41;10497962;28;20083;-84
2022/11/11 17:57:05;;;;;;;17.33;11.43;;;10.80;99.90;;;8.73;98.22;101695.72;10487963;28;20068;-84
2022/11/11 18:02:11;;;;;;;18.07;11.13;;;10.70;99.90;;;8.77;98.59;101680.44;10486764;28;20095;-84
2022/11/11 18:07:14;;;;;;;17.83;10.53;;;10.70;99.90;;;8.79;98.35;101676.69;10484641;28;20089;-83
2022/11/11 18:12:17;;;;;;;22.47;11.63;;;10.80;99.90;;;8.79;97.99;101675.84;10494162;28;20080;-83
2022/11/11 18:17:20;;;;;;;19.73;10.57;;;10.80;99.90;;;8.79;97.93;101665.25;10476457;28;20063;-84
2022/11/11 18:22:23;;;;;;;16.53;10.10;;;10.80;99.90;;;8.80;97.89;101665.13;10476650;28;20053;-84
2022/11/11 18:27:26;;;;;;;15.27;9.77;;;10.80;99.90;;;8.81;97.65;101665.97;10480811;28;20060;-84
2022/11/11 18:32:29;;;;;;;19.30;12.43;;;10.90;99.90;;;8.80;97.63;101656.31;10479034;28;20053;-84
2022/11/11 18:37:32;;;;;;;16.63;9.97;;;10.90;99.90;;;8.82;97.28;101663.22;10462538;28;20547;-84
2022/11/11 18:42:35;;;;;;;15.83;8.67;;;10.90;99.90;;;8.84;97.02;101655.97;10490685;28;20060;-84
2022/11/11 18:47:38;;;;;;;12.13;8.37;;;10.90;99.90;;;8.91;96.52;101658.13;10491035;28;20065;-84
2022/11/11 18:52:41;;;;;;;10.83;7.73;;;10.90;99.90;;;8.92;95.80;101657.16;10520876;28;20143;-84
2022/11/11 18:57:44;;;;;;;13.80;8.27;;;10.90;99.90;;;8.92;95.37;101658.00;10493604;28;20056;-84
2022/11/11 19:02:47;;;;;;;11.67;7.90;;;10.90;99.90;;;8.95;95.08;101657.78;10516191;28;20061;-84
2022/11/11 19:07:50;;;;;;;9.97;7.10;;;10.90;99.90;;;8.94;94.50;101665.88;10493128;28;20728;-84
2022/11/11 19:12:52;;;;;;;12.63;7.40;;;10.90;99.90;;;8.91;94.50;101642.22;10489065;28;20081;-84
2022/11/11 19:17:55;;;;;;;11.70;7.53;;;10.90;99.90;;;8.88;94.60;101648.63;10488635;28;20092;-83
2022/11/11 19:22:58;;;;;;;10.97;7.67;;;10.90;99.90;;;8.84;94.45;101661.28;10490266;28;20061;-84
2022/11/11 19:28:03;;;;;;;12.53;7.90;;;10.90;99.90;;;8.74;94.64;101662.94;10482125;28;20060;-84
2022/11/11 19:33:07;;;;;;;12.87;7.70;;;10.80;99.90;;;8.72;94.92;101661.41;10470771;28;20136;-84
2022/11/11 19:38:09;;;;;;;11.13;7.33;;;10.80;99.90;;;8.73;94.87;101660.44;10497899;28;20111;-84
2022/11/11 19:43:12;;;;;;;12.50;7.70;;;10.70;99.90;;;8.72;94.87;101656.94;10465498;28;20065;-83
2022/11/11 19:48:16;;;;;;;11.17;7.33;;;10.70;99.90;;;8.72;94.89;101656.94;10483006;28;20215;-84
2022/11/11 19:53:19;;;;;;;9.63;6.20;;;10.70;99.90;;;8.74;94.88;101662.94;10518178;28;20097;-84
2022/11/11 19:58:26;;;;;;;15.13;6.37;;;10.70;99.90;;;8.72;94.81;101662.22;10470904;28;20107;-84
2022/11/11 20:03:31;;;;;;;11.77;6.03;;;10.70;99.90;;;8.68;94.77;101649.34;10467357;28;20061;-84
2022/11/11 20:08:33;;;;;;;11.33;6.20;;;10.70;99.90;;;8.63;94.42;101649.69;10483572;28;20061;-84
2022/11/11 20:13:38;;;;;;;10.37;6.27;;;10.70;99.90;;;8.50;94.45;101660.41;10466542;28;20081;-84
2022/11/11 20:18:44;;;;;;;14.93;8.10;;;10.60;99.90;;;8.35;94.52;101653.63;10485283;28;20057;-84
2022/11/11 20:23:47;;;;;;;11.47;6.00;;;10.50;99.90;;;8.25;94.94;101664.06;10484120;28;20061;-84
2022/11/11 20:28:56;;;;;;;12.13;6.33;;;10.40;99.90;;;8.13;95.12;101667.66;10472978;28;20057;-84
2022/11/11 20:33:59;;;;;;;11.10;5.93;;;10.30;99.90;;;8.00;95.24;101669.53;10486816;28;20056;-84
2022/11/11 20:39:02;;;;;;;10.53;6.27;;;10.10;99.90;;;7.88;95.91;101667.81;10467662;28;20084;-83
2022/11/11 20:44:05;;;;;;;27.00;12.93;;;10.00;99.90;;;7.75;96.18;101675.81;10526748;28;20111;-84
2022/11/11 20:49:08;;;;;;;22.97;11.43;;;9.90;99.90;;;7.60;96.49;101677.78;10481202;28;20181;-84
2022/11/11 20:54:11;;;;;;;17.00;9.30;;;9.80;99.90;;;7.45;96.85;101681.56;10492924;28;20065;-84
2022/11/11 20:59:14;;;;;;;15.30;8.77;;;9.60;99.90;;;7.31;96.97;101684.34;10477974;28;20149;-83
2022/11/11 21:04:17;;;;;;;22.60;7.27;;;9.50;99.90;;;7.13;96.91;101683.84;10474588;28;20053;-83
2022/11/11 21:09:20;;;;;;;18.47;10.90;;;9.30;99.90;;;6.97;97.37;101687.59;10473405;28;20092;-83
2022/11/11 21:14:24;;;;;;;25.50;12.43;;;9.20;99.90;;;6.83;97.65;101681.59;10520919;28;20545;-84
2022/11/11 21:19:27;;;;;;;24.23;12.43;;;9.00;99.90;;;6.66;98.07;101680.97;10475133;28;20127;-83
2022/11/11 21:24:30;;;;;;;22.87;13.07;;;8.90;99.90;;;6.55;98.55;101672.13;10493107;28;20068;-84
2022/11/11 21:29:33;;;;;;;22.20;12.17;;;8.80;99.90;;;6.42;99.00;101666.84;10492148;28;20123;-84
2022/11/11 21:34:36;;;;;;;23.77;13.43;;;8.60;99.90;;;6.28;99.12;101674.84;10496432;28;20060;-83
2022/11/11 21:39:39;;;;;;;22.23;12.43;;;8.50;99.90;;;6.14;99.20;101675.78;10463922;28;20166;-83
2022/11/11 21:44:42;;;;;;;35.47;17.83;;;8.40;99.90;;;6.04;99.76;101683.44;10482075;28;20065;-83
2022/11/11 21:49:44;;;;;;;38.00;18.63;;;8.20;99.90;;;5.94;100.00;101671.84;10472569;28;20064;-84
2022/11/11 21:54:48;;;;;;;34.93;17.80;;;8.20;99.90;;;5.84;100.00;101678.63;10486506;28;20053;-84
2022/11/11 21:59:51;;;;;;;34.30;18.93;;;8.10;99.90;;;5.77;100.00;101685.25;10494670;28;20061;-85
2022/11/11 22:04:54;;;;;;;34.27;18.80;;;8.00;99.90;;;5.65;100.00;101681.63;10494429;28;20053;-84
2022/11/11 22:09:57;;;;;;;32.97;17.63;;;7.90;99.90;;;5.53;100.00;101688.53;10490402;28;20195;-84